No requiere especial atencion con respecto al clima.   -   No hay Alarmas

Nearby METAR Reports

 

LELL - Sabadell, Spain
Distance from station: ONO 14km
Actualización: 21/08/2018 09:30
Few Clouds
Few Clouds
 Viento del calm
Viento: Calma
Temperatura: 25°C
Rocío: 17°C
Humedad: 61%
Barómetro: 1018 hPa
Clouds: Few Clouds
Visibilidad: 10 km
Cloud details: Few Clouds 1219 m
2018/08/21 07:30 LELL 210730Z 00000KT 9999 FEW040 25/17 Q1018
LEBL - Barcelona Airpor, Spain
Distance from station: SO 25km
Actualización: 21/08/2018 09:30
Despejado
Despejado
 Viento del NO
Viento: NO 13 km/h
Temperatura: 25°C
Rocío: 17°C
Humedad: 61%
Barómetro: 1017 hPa
Resumen: Despejado
Visibilidad: greater than 10 km
2018/08/21 07:30 LEBL 210730Z 32007KT 290V360 CAVOK 25/17 Q1017 NOSIG
 
LEGE - Gerona/Costa Bra, Spain
Distance from station: NE 65km
Actualización: 21/08/2018 09:30
Despejado
Despejado
 Viento del varies
Viento: varies 2 km/h
Temperatura: 22°C
Rocío: 17°C
Humedad: 73%
Barómetro: 1017 hPa
Resumen: Despejado
Visibilidad: greater than 10 km
2018/08/21 07:30 LEGE 210730Z VRB01KT CAVOK 22/17 Q1017
LERS - Reus (civ/Mil), Spain
Distance from station: OSO 96km
Actualización: 21/08/2018 09:30
Despejado
Despejado
 Viento del NNE
Viento: NNE 6 km/h
Temperatura: 26°C
Rocío: 19°C
Humedad: 65%
Barómetro: 1017 hPa
Resumen: Despejado
Visibilidad: greater than 10 km
2018/08/21 07:30 LERS 210730Z 02003KT 350V050 CAVOK 26/19 Q1017